Time;durP1;ratioP1;P1;durP2;ratioP2;P2;SDS_P1;SDS_P2;PMS_P1;PMS_P2;Temp;Humidity;BMP_temperature;BMP_pressure;BME280_temperature;BME280_humidity;BME280_pressure;Samples;Min_cycle;Max_cycle;Signal;HPM_P1;HPM_P2
2023/09/12 00:01:41;;;;;;;55.67;26.45;;;;;;;11.85;73.09;99990.84;4888600;29;20064;-89
2023/09/12 00:04:07;;;;;;;52.20;25.27;;;;;;;11.95;73.88;100016.16;4902851;29;20122;-94
2023/09/12 00:06:33;;;;;;;52.72;26.23;;;;;;;11.95;74.55;100007.09;4911406;29;20083;-93
2023/09/12 00:08:59;;;;;;;55.60;26.02;;;;;;;12.04;76.21;100031.84;4889710;29;20072;-94
2023/09/12 00:11:25;;;;;;;59.13;27.70;;;;;;;12.04;76.02;100032.66;4888663;29;20044;-95
2023/09/12 00:13:52;;;;;;;52.17;25.38;;;;;;;11.94;76.15;100021.91;4898368;29;20273;-95
2023/09/12 00:16:18;;;;;;;59.47;26.63;;;;;;;12.04;75.55;100037.34;4899230;29;20049;-93
2023/09/12 00:18:43;;;;;;;58.97;27.20;;;;;;;12.05;76.37;100039.75;4869450;29;20077;-90
2023/09/12 00:21:09;;;;;;;67.80;28.15;;;;;;;11.78;76.58;99999.44;4898702;29;20068;-94
2023/09/12 00:23:35;;;;;;;55.67;27.05;;;;;;;11.97;76.90;100037.75;4892843;29;20036;-96
2023/09/12 00:26:01;;;;;;;91.13;27.92;;;;;;;11.77;76.52;100006.88;4894259;29;20049;-94
2023/09/12 00:28:27;;;;;;;235.25;32.33;;;;;;;11.67;76.35;99998.03;4878492;29;20037;-96
2023/09/12 00:30:53;;;;;;;200.57;29.55;;;;;;;11.92;76.36;100049.63;4905557;29;20041;-94
2023/09/12 00:33:34;;;;;;;186.57;28.55;;;;;;;11.88;76.42;100050.53;4883863;29;20131;-94
2023/09/12 00:36:06;;;;;;;176.82;24.77;;;;;;;11.38;76.91;99973.66;4898891;29;20044;-94
2023/09/12 00:38:57;;;;;;;69.10;21.23;;;;;;;11.80;76.72;100057.50;4902122;29;20044;-95
2023/09/12 00:41:38;;;;;;;52.20;21.42;;;;;;;11.51;76.50;100013.94;4885212;29;20033;-94
2023/09/12 00:44:04;;;;;;;52.40;21.73;;;;;;;11.56;76.50;100029.47;4895884;29;20048;-94
2023/09/12 00:46:31;;;;;;;48.40;21.50;;;;;;;11.68;76.47;100055.25;4907350;29;20048;-95
2023/09/12 00:48:59;;;;;;;48.58;22.70;;;;;;;11.46;76.90;100017.59;4874751;29;20085;-96
2023/09/12 00:52:06;;;;;;;58.30;24.02;;;;;;;11.46;76.66;100025.00;4905385;29;20072;-96
2023/09/12 00:54:32;;;;;;;45.65;23.90;;;;;;;11.67;76.35;100058.28;4906523;29;20105;-95
2023/09/12 00:56:58;;;;;;;51.63;25.98;;;;;;;11.61;76.89;100051.28;4893134;29;20103;-96
2023/09/12 00:59:24;;;;;;;50.30;25.05;;;;;;;11.54;76.82;100051.66;4889558;29;20048;-96
2023/09/12 01:01:51;;;;;;;51.05;23.42;;;;;;;11.48;76.20;100061.88;4888695;29;20041;-96
2023/09/12 01:04:20;;;;;;;42.03;22.53;;;;;;;11.49;75.18;100069.00;4906546;29;20036;-96
2023/09/12 01:07:11;;;;;;;59.10;23.23;;;;;;;11.47;75.78;100070.41;4898921;29;20074;-96
2023/09/12 01:09:37;;;;;;;57.75;24.52;;;;;;;11.39;76.14;100063.72;4906153;29;20040;-95
2023/09/12 01:12:03;;;;;;;47.60;24.20;;;;;;;11.33;75.66;100051.22;4893921;29;20060;-96
2023/09/12 01:14:30;;;;;;;60.75;27.35;;;;;;;11.37;76.11;100052.25;4907229;29;20072;-95
2023/09/12 01:17:38;;;;;;;56.70;27.70;;;;;;;11.58;76.37;100071.84;4874859;29;20118;-96
2023/09/12 01:20:09;;;;;;;50.78;25.23;;;;;;;11.51;75.79;100061.28;4911124;23;20143;-89
2023/09/12 01:23:02;;;;;;;60.63;26.48;;;;;;;11.58;75.67;100063.63;4896509;29;20522;-95
2023/09/12 01:25:41;;;;;;;51.90;25.73;;;;;;;11.56;76.19;100054.94;4913085;29;20072;-95
2023/09/12 01:28:10;;;;;;;57.72;26.98;;;;;;;11.64;76.77;100070.66;4876157;29;20112;-95
2023/09/12 01:30:39;;;;;;;55.45;27.45;;;;;;;11.57;76.90;100048.34;4873778;29;20131;-96
2023/09/12 01:33:05;;;;;;;67.18;27.42;;;;;;;11.67;76.04;100064.56;4884130;29;20103;-95
2023/09/12 01:35:31;;;;;;;52.13;25.90;;;;;;;11.62;76.04;100061.09;4876975;29;20044;-95
2023/09/12 01:38:10;;;;;;;50.28;25.55;;;;;;;11.69;75.99;100072.50;4911999;29;20055;-95
2023/09/12 01:41:05;;;;;;;53.60;25.35;;;;;;;11.33;75.58;100012.91;4909736;29;20036;-95
2023/09/12 01:43:31;;;;;;;64.80;27.50;;;;;;;11.50;76.24;100042.44;4926746;29;20052;-94
2023/09/12 01:49:10;;;;;;;77.20;26.13;;;;;;;11.37;75.81;100027.59;4908622;29;20044;-92
2023/09/12 01:51:39;;;;;;;75.07;26.95;;;;;;;11.36;75.61;100039.69;4902278;29;20060;-96
2023/09/12 01:54:12;;;;;;;57.60;26.25;;;;;;;11.53;76.22;100066.47;4879674;29;20525;-95
2023/09/12 01:56:42;;;;;;;62.45;26.13;;;;;;;11.49;76.17;100069.00;4891576;29;20108;-96
2023/09/12 01:59:24;;;;;;;56.55;26.42;;;;;;;11.54;75.89;100076.31;4897969;29;20043;-96
2023/09/12 02:02:16;;;;;;;55.00;26.60;;;;;;;11.49;76.07;100079.97;4900863;29;20075;-93
2023/09/12 02:04:49;;;;;;;63.15;27.80;;;;;;;11.46;76.12;100075.09;4915891;29;20494;-95
2023/09/12 02:07:16;;;;;;;60.85;26.52;;;;;;;11.37;76.01;100062.38;4899781;29;20051;-94
2023/09/12 02:09:42;;;;;;;;;;;;;;;11.53;76.01;100082.91;4893418;29;20040;-96
2023/09/12 02:12:11;;;;;;;54.90;24.27;;;;;;;11.48;74.95;100072.84;4890776;29;19982;-94
2023/09/12 02:14:42;;;;;;;57.08;24.70;;;;;;;11.53;74.09;100085.66;4898392;29;20095;-95
2023/09/12 02:17:08;;;;;;;54.92;27.02;;;;;;;11.46;75.18;100080.56;4880623;29;20048;-93
2023/09/12 02:19:41;;;;;;;55.58;26.13;;;;;;;11.20;75.99;100049.25;4897916;29;20041;-91
2023/09/12 02:22:10;;;;;;;57.85;26.60;;;;;;;11.43;75.60;100077.63;4969507;23;20056;-93
2023/09/12 02:24:36;;;;;;;53.25;25.83;;;;;;;11.48;75.33;100093.94;4867932;29;20044;-91
2023/09/12 02:27:20;;;;;;;56.15;26.98;;;;;;;11.23;75.10;100052.19;4894179;29;20064;-92
2023/09/12 02:29:53;;;;;;;56.60;26.98;;;;;;;11.45;75.51;100092.59;4901813;29;20093;-93
2023/09/12 02:32:19;;;;;;;55.60;26.83;;;;;;;11.29;75.92;100066.59;4899767;29;20120;-93
2023/09/12 02:34:45;;;;;;;57.10;26.53;;;;;;;11.45;75.94;100100.00;4872441;29;20080;-90
2023/09/12 02:40:19;;;;;;;59.88;26.52;;;;;;;11.39;75.25;100093.81;4863663;29;20133;-89
2023/09/12 02:43:02;;;;;;;57.13;25.58;;;;;;;11.44;75.21;100095.66;4848555;29;20050;-87
2023/09/12 02:45:41;;;;;;;64.82;27.25;;;;;;;10.97;74.83;100018.97;4846683;29;20423;-88
2023/09/12 02:48:07;;;;;;;59.10;25.90;;;;;;;11.35;74.05;100089.22;4860713;29;20124;-88
2023/09/12 02:50:35;;;;;;;57.90;24.45;;;;;;;11.25;73.13;100101.16;4825981;29;20069;-89
2023/09/12 02:53:04;;;;;;;54.53;23.83;;;;;;;11.20;72.75;100096.59;4830498;29;20140;-88
2023/09/12 02:55:31;;;;;;;45.03;23.60;;;;;;;11.01;72.64;100068.44;4844904;29;20049;-87
2023/09/12 02:58:00;;;;;;;59.83;23.42;;;;;;;11.12;72.23;100086.31;4844434;29;20052;-94
2023/09/12 03:00:31;;;;;;;52.28;24.60;;;;;;;11.23;73.56;100108.88;4861005;29;20045;-87
2023/09/12 03:03:02;;;;;;;58.58;24.95;;;;;;;11.26;73.87;100109.09;4844385;29;20049;-87
2023/09/12 03:05:35;;;;;;;57.10;27.00;;;;;;;11.27;75.03;100109.91;4846175;29;20048;-95
2023/09/12 03:08:03;;;;;;;48.20;24.67;;;;;;;11.29;74.56;100107.66;4850502;29;20077;-88
2023/09/12 03:10:29;;;;;;;52.95;26.10;;;;;;;11.13;75.62;100068.00;4904479;23;20062;-88
2023/09/12 03:12:55;;;;;;;66.20;27.38;;;;;;;11.31;74.26;100099.97;4831685;29;20143;-87
2023/09/12 03:15:21;;;;;;;54.08;25.85;;;;;;;11.26;74.47;100095.41;4950079;24;20155;-88
2023/09/12 03:17:47;;;;;;;57.60;27.00;;;;;;;11.03;74.71;100050.63;4867318;29;20450;-87
2023/09/12 03:20:13;;;;;;;66.47;28.52;;;;;;;11.21;75.28;100091.91;4878135;29;20043;-87
2023/09/12 03:22:39;;;;;;;62.75;26.35;;;;;;;10.98;74.50;100053.41;4884031;29;20056;-88
2023/09/12 03:25:16;;;;;;;53.72;25.55;;;;;;;11.22;74.21;100105.28;4863195;29;20045;-89
2023/09/12 03:27:57;;;;;;;68.72;26.65;;;;;;;11.28;74.77;100119.72;4842344;29;20104;-96
2023/09/12 03:30:23;;;;;;;61.72;26.85;;;;;;;11.04;74.92;100078.78;4864184;29;20048;-91
2023/09/12 03:32:49;;;;;;;156.23;26.80;;;;;;;11.21;75.10;100106.41;4863155;29;20055;-96
2023/09/12 03:35:15;;;;;;;112.60;25.45;;;;;;;11.02;75.62;100073.59;4894383;29;20044;-93
2023/09/12 03:37:42;;;;;;;105.05;24.20;;;;;;;11.25;75.97;100114.84;4876921;29;20117;-87
2023/09/12 03:40:11;;;;;;;;;;;;;;;11.25;75.98;100115.66;4969282;23;20067;-93
2023/09/12 03:42:37;;;;;;;57.90;22.65;;;;;;;10.98;75.77;100082.69;4885864;29;20022;-92
2023/09/12 03:45:04;;;;;;;45.22;22.63;;;;;;;11.16;75.60;100102.94;4902923;29;20063;-95
2023/09/12 03:47:30;;;;;;;48.30;22.33;;;;;;;10.97;75.42;100079.16;4937045;29;20510;-96
2023/09/12 03:49:56;;;;;;;49.10;22.75;;;;;;;11.14;76.06;100099.69;4936109;29;20048;-89
2023/09/12 03:52:25;;;;;;;48.80;24.13;;;;;;;11.17;76.00;100099.91;4908594;29;20046;-96
2023/09/12 03:54:54;;;;;;;60.78;22.02;;;;;;;11.27;75.49;100109.91;4925032;29;20052;-95
2023/09/12 03:57:20;;;;;;;59.45;23.92;;;;;;;11.02;75.72;100062.66;4923854;29;20096;-95
2023/09/12 03:59:46;;;;;;;47.42;22.77;;;;;;;11.15;75.66;100082.97;4902418;29;20036;-89
2023/09/12 04:02:13;;;;;;;49.78;22.85;;;;;;;11.32;75.85;100126.22;4903548;29;20079;-94
2023/09/12 04:04:59;;;;;;;59.90;23.63;;;;;;;11.32;75.72;100128.97;4902356;29;20048;-95
2023/09/12 04:07:29;;;;;;;58.33;22.60;;;;;;;11.16;75.71;100092.81;4919718;29;20040;-91
2023/09/12 04:10:02;;;;;;;51.92;22.98;;;;;;;11.28;75.76;100114.25;4953339;29;20111;-88
2023/09/12 04:12:31;;;;;;;47.90;24.02;;;;;;;11.31;75.70;100108.19;4893507;29;20131;-94
2023/09/12 04:15:09;;;;;;;43.65;24.05;;;;;;;11.46;76.29;100129.03;4914591;29;20024;-89
2023/09/12 04:17:57;;;;;;;48.63;24.40;;;;;;;11.30;76.03;100101.09;4869624;29;20060;-88
2023/09/12 04:20:38;;;;;;;49.85;24.52;;;;;;;11.21;75.99;100089.19;4948681;29;20043;-92
2023/09/12 04:23:04;;;;;;;48.35;24.40;;;;;;;11.65;75.83;100138.00;4922309;29;20048;-89
2023/09/12 04:25:33;;;;;;;42.38;24.13;;;;;;;11.70;75.51;100135.19;4935832;29;20063;-94
2023/09/12 04:28:12;;;;;;;48.05;24.17;;;;;;;11.67;75.38;100130.31;4911403;29;20044;-88
2023/09/12 04:31:06;;;;;;;60.10;24.90;;;;;;;11.79;75.46;100139.97;4915390;29;20069;-92
2023/09/12 04:33:58;;;;;;;74.15;24.15;;;;;;;11.81;75.32;100135.00;4921991;29;20059;-88
2023/09/12 04:36:49;;;;;;;52.47;25.23;;;;;;;11.87;75.67;100140.13;4931896;28;20055;-93
2023/09/12 04:39:52;;;;;;;62.78;26.40;;;;;;;11.69;75.75;100105.38;4928214;29;20080;-96
2023/09/12 04:42:20;;;;;;;51.60;26.13;;;;;;;11.91;75.89;100143.06;4855992;29;20045;-93
2023/09/12 04:44:52;;;;;;;44.67;23.67;;;;;;;11.94;76.34;100150.69;4798192;29;20506;-89
2023/09/12 04:47:22;;;;;;;60.45;26.33;;;;;;;11.88;76.42;100125.31;4822936;29;20078;-90
2023/09/12 04:49:57;;;;;;;75.75;26.52;;;;;;;11.69;76.01;100097.97;4830129;29;20050;-86
2023/09/12 04:52:26;;;;;;;54.05;25.02;;;;;;;11.70;76.11;100079.59;4828554;29;20042;-89
2023/09/12 04:54:53;;;;;;;52.10;26.52;;;;;;;12.09;75.89;100152.34;4803204;29;20062;-88
2023/09/12 04:57:34;;;;;;;55.97;26.15;;;;;;;11.95;76.10;100133.13;4805691;29;20400;-89
2023/09/12 05:00:05;;;;;;;57.30;27.17;;;;;;;11.97;76.15;100128.97;4822521;29;20054;-88
2023/09/12 05:02:56;;;;;;;62.42;27.77;;;;;;;12.13;75.85;100154.19;4810385;29;20078;-87
2023/09/12 05:05:23;;;;;;;63.40;28.17;;;;;;;12.24;75.84;100160.28;4823463;29;20623;-84
2023/09/12 05:07:51;;;;;;;56.17;26.88;;;;;;;12.05;75.70;100121.16;4809481;29;20074;-89
2023/09/12 05:10:23;;;;;;;68.00;29.35;;;;;;;11.99;74.85;100120.47;4838020;29;20067;-88
2023/09/12 05:13:42;;;;;;;68.80;28.25;;;;;;;12.38;75.62;100169.34;4812852;29;20083;-88
2023/09/12 05:16:10;;;;;;;56.83;27.35;;;;;;;12.41;76.64;100126.78;4843825;29;20073;-90
2023/09/12 05:18:40;;;;;;;75.85;28.02;;;;;;;12.67;75.46;100146.25;4831893;29;20045;-90
2023/09/12 05:21:22;;;;;;;56.45;28.15;;;;;;;12.73;74.34;100166.97;4850032;29;20049;-87
2023/09/12 05:23:48;;;;;;;64.80;28.40;;;;;;;12.68;74.75;100164.34;4867693;29;20042;-86
2023/09/12 05:26:17;;;;;;;53.47;28.10;;;;;;;12.54;74.35;100141.59;4856303;29;20065;-87
2023/09/12 05:28:49;;;;;;;70.30;29.40;;;;;;;12.59;74.19;100155.22;4855802;29;20041;-92
2023/09/12 05:31:25;;;;;;;66.38;28.70;;;;;;;12.09;74.31;100105.75;4874398;29;20041;-91
2023/09/12 05:33:52;;;;;;;58.85;29.25;;;;;;;12.50;74.38;100168.81;4824773;29;20116;-90
2023/09/12 05:36:44;;;;;;;53.13;27.98;;;;;;;12.63;74.36;100186.41;4854331;29;20056;-91
2023/09/12 05:39:28;;;;;;;56.80;28.15;;;;;;;12.56;75.38;100175.03;4859212;29;20212;-89
2023/09/12 05:42:22;;;;;;;77.35;29.55;;;;;;;11.95;75.85;100114.78;4831365;29;20114;-86
2023/09/12 05:44:49;;;;;;;57.85;29.73;;;;;;;12.02;76.02;100144.53;4838334;29;20046;-89
2023/09/12 05:47:28;;;;;;;58.53;29.15;;;;;;;12.27;76.44;100192.56;4816823;29;20057;-87
2023/09/12 05:50:11;;;;;;;78.03;30.08;;;;;;;12.09;76.43;100135.91;4855504;29;20056;-93
2023/09/12 05:57:05;;;;;;;62.20;28.88;;;;;;;12.39;76.71;100148.22;4811336;29;20051;-89
2023/09/12 06:00:35;;;;;;;57.38;29.48;;;;;;;12.84;76.10;100204.06;4802898;30;20134;-90
2023/09/12 06:03:10;;;;;;;66.20;31.25;;;;;;;12.46;75.53;100189.75;4817145;29;20055;-85
2023/09/12 06:05:37;;;;;;;69.72;32.72;;;;;;;12.66;76.87;100197.56;4824710;29;20055;-89
2023/09/12 06:08:04;;;;;;;69.07;33.78;;;;;;;12.85;76.59;100205.69;4789701;29;20066;-94
2023/09/12 06:10:30;;;;;;;76.20;34.08;;;;;;;13.00;75.82;100203.75;4787396;30;20202;-94
2023/09/12 06:13:24;;;;;;;81.97;40.78;;;;;;;13.03;76.14;100203.13;4866127;23;20277;-92
2023/09/12 06:15:53;;;;;;;84.10;43.65;;;;;;;12.97;75.71;100174.16;4846822;29;20068;-91
2023/09/12 06:18:20;;;;;;;84.07;42.10;;;;;;;13.22;75.21;100200.25;4830994;29;20049;-91
2023/09/12 06:21:11;;;;;;;84.85;42.60;;;;;;;13.04;75.08;100158.91;4856209;29;20067;-90
2023/09/12 06:23:37;;;;;;;84.65;42.50;;;;;;;13.32;75.09;100191.81;4881073;29;20063;-89
2023/09/12 06:26:53;;;;;;;86.83;43.03;;;;;;;13.50;74.58;100201.00;4899277;29;20025;-92
2023/09/12 06:29:20;;;;;;;77.72;39.03;;;;;;;13.32;74.50;100156.94;4870359;29;20048;-90
2023/09/12 06:31:57;;;;;;;91.80;38.83;;;;;;;13.29;74.18;100137.50;4899537;29;20053;-88
2023/09/12 06:34:23;;;;;;;;;;;;;;;13.82;74.56;100203.50;5018968;24;20048;-89
2023/09/12 06:36:51;;;;;;;63.63;33.20;;;;;;;14.16;72.06;100173.78;4900260;29;19929;-88
2023/09/12 06:39:21;;;;;;;64.45;35.42;;;;;;;14.32;72.07;100194.25;4914972;29;20143;-91
2023/09/12 06:41:48;;;;;;;76.38;33.58;;;;;;;13.90;71.59;100155.22;4903896;29;20081;-92
2023/09/12 06:44:15;;;;;;;56.70;30.70;;;;;;;13.99;72.00;100158.84;5198227;23;20097;-90
2023/09/12 06:49:39;;;;;;;59.80;30.10;;;;;;;13.87;70.51;100122.84;4873196;29;20180;-91
2023/09/12 06:52:09;;;;;;;55.28;30.08;;;;;;;14.47;70.62;100169.09;4900126;29;20049;-94
2023/09/12 06:54:57;;;;;;;57.33;30.85;;;;;;;14.52;69.72;100174.47;4901340;29;20044;-89
2023/09/12 06:57:51;;;;;;;57.22;29.02;;;;;;;14.71;69.64;100189.91;4841032;29;20037;-92
2023/09/12 07:00:42;;;;;;;52.10;28.73;;;;;;;14.72;68.36;100158.50;4833460;29;20057;-89
2023/09/12 07:03:12;;;;;;;50.47;27.95;;;;;;;15.54;68.49;100195.38;4818848;29;20046;-90
2023/09/12 07:05:48;;;;;;;51.80;29.38;;;;;;;15.47;65.78;100168.31;4812369;29;20060;-93
2023/09/12 07:08:14;;;;;;;53.58;30.08;;;;;;;15.58;66.24;100201.88;4825175;29;20069;-92
2023/09/12 07:10:45;;;;;;;83.68;32.53;;;;;;;15.34;66.71;100171.25;4814916;29;20054;-93
2023/09/12 07:13:37;;;;;;;59.08;29.58;;;;;;;15.28;65.00;100209.94;4809063;29;20068;-89
2023/09/12 07:21:35;;;;;;;65.60;32.60;;;;;;;15.18;67.53;100159.88;4933713;29;20056;-91
2023/09/12 07:27:11;;;;;;;56.80;30.55;;;;;;;15.81;65.09;100201.72;4954334;23;20044;-92
2023/09/12 07:29:43;;;;;;;59.53;28.83;;;;;;;15.95;65.54;100203.16;4888359;29;20051;-92
2023/09/12 07:32:15;;;;;;;62.67;29.48;;;;;;;15.98;64.77;100179.63;4904689;29;20052;-94
2023/09/12 07:35:49;;;;;;;61.22;31.48;;;;;;;15.80;63.67;100142.22;4891863;29;20060;-91
2023/09/12 07:44:15;;;;;;;54.90;30.65;;;;;;;15.89;64.94;100156.75;4957338;28;20047;-89
2023/09/12 07:58:19;;;;;;;47.08;27.05;;;;;;;16.37;61.38;100200.59;4941270;29;20155;-89
2023/09/12 08:04:11;;;;;;;54.17;27.23;;;;;;;16.25;61.33;100194.16;5109514;23;20051;-90
2023/09/12 08:09:59;;;;;;;48.85;25.83;;;;;;;16.33;61.31;100191.38;5337333;23;20051;-91
2023/09/12 08:12:27;;;;;;;60.17;23.87;;;;;;;16.53;62.24;100189.84;4917766;29;20063;-91
2023/09/12 08:15:48;;;;;;;39.58;22.33;;;;;;;16.99;61.62;100190.13;4897297;29;20193;-91
2023/09/12 08:18:36;;;;;;;41.45;23.58;;;;;;;17.09;61.20;100171.19;4917306;29;20048;-90
2023/09/12 08:21:40;;;;;;;42.30;24.15;;;;;;;17.41;59.17;100190.94;4886333;29;20040;-90
2023/09/12 08:27:27;;;;;;;50.83;24.02;;;;;;;17.59;56.01;100162.00;5161321;23;20040;-90
2023/09/12 08:30:00;;;;;;;54.53;24.07;;;;;;;17.49;58.11;100164.38;4906490;29;20060;-91
2023/09/12 08:35:30;;;;;;;37.78;22.58;;;;;;;17.76;56.20;100127.03;4781289;27;20115;-90
2023/09/12 08:37:57;;;;;;;43.70;24.38;;;;;;;17.35;55.31;100132.31;4924039;29;20095;-90
2023/09/12 08:43:41;;;;;;;59.42;22.33;;;;;;;18.10;55.91;100189.50;4980833;23;20063;-91
2023/09/12 08:46:09;;;;;;;35.72;20.83;;;;;;;18.43;56.12;100191.44;4888791;29;20056;-88
2023/09/12 08:48:43;;;;;;;47.75;23.45;;;;;;;18.32;55.43;100188.31;4887129;29;20506;-86
2023/09/12 08:51:12;;;;;;;45.03;22.40;;;;;;;18.14;54.40;100171.06;4903490;29;20073;-90
2023/09/12 08:53:42;;;;;;;35.08;19.98;;;;;;;18.24;55.54;100187.22;4918120;29;20032;-87
2023/09/12 08:56:31;;;;;;;37.38;20.70;;;;;;;18.05;55.52;100129.69;4916602;29;20024;-87
2023/09/12 08:59:49;;;;;;;33.95;19.58;;;;;;;18.35;54.18;100123.94;4829096;29;20039;-91
2023/09/12 09:06:12;;;;;;;30.63;18.08;;;;;;;19.05;53.88;100167.31;3851650;23;20055;-89
2023/09/12 09:47:23;;;;;;;42.28;13.88;;;;;;;19.79;50.06;100162.38;4956609;28;20131;-90
2023/09/12 09:50:19;;;;;;;25.60;13.20;;;;;;;19.66;50.79;100159.63;4928768;29;20052;-90
2023/09/12 09:53:25;;;;;;;28.60;12.15;;;;;;;19.32;50.05;100130.53;4923930;29;20132;-89
2023/09/12 10:08:17;;;;;;;27.08;12.05;;;;;;;19.70;49.38;100146.69;975118;23;20330;-88
2023/09/12 10:11:04;;;;;;;20.27;10.15;;;;;;;19.78;49.21;100155.22;4955552;29;20070;-88
2023/09/12 10:13:35;;;;;;;23.33;10.05;;;;;;;19.51;49.27;100093.81;5018229;23;20036;-90
2023/09/12 10:16:04;;;;;;;26.75;9.98;;;;;;;20.02;48.92;100149.50;4889525;29;20052;-89
2023/09/12 10:18:44;;;;;;;23.45;10.70;;;;;;;20.01;48.26;100128.47;4901335;29;20109;-87
2023/09/12 10:21:54;;;;;;;74.75;10.68;;;;;;;20.16;47.76;100151.84;4892962;29;20016;-90
2023/09/12 10:37:28;;;;;;;14.48;8.85;;;;;;;20.65;46.26;100155.09;4907390;29;20108;-89
2023/09/12 10:40:22;;;;;;;28.08;9.25;;;;;;;20.61;46.16;100154.22;4904279;29;20051;-90
2023/09/12 10:42:51;;;;;;;31.48;9.32;;;;;;;20.38;45.91;100142.91;4906664;29;20064;-90
2023/09/12 10:45:19;;;;;;;35.80;11.10;;;;;;;20.15;46.04;100126.06;5199920;23;20086;-87
2023/09/12 10:47:49;;;;;;;19.08;8.75;;;;;;;20.17;45.84;100117.41;4907080;29;20044;-87
2023/09/12 10:50:50;;;;;;;20.67;8.98;;;;;;;20.76;46.87;100147.03;5382754;23;20095;-91
2023/09/12 10:53:57;;;;;;;20.30;9.35;;;;;;;20.81;44.57;100143.16;4919278;29;20064;-87
2023/09/12 10:56:38;;;;;;;;;;;;;;;20.76;45.36;100140.66;4862375;29;20057;-89
2023/09/12 10:59:50;;;;;;;17.30;8.65;;;;;;;20.89;45.82;100142.16;4863104;29;20433;-89
2023/09/12 11:03:11;;;;;;;22.88;9.10;;;;;;;20.58;43.68;100141.03;4862965;29;20097;-88
2023/09/12 11:06:19;;;;;;;19.40;9.85;;;;;;;20.37;45.25;100132.97;4863969;29;20036;-87
2023/09/12 11:12:09;;;;;;;27.98;9.45;;;;;;;20.10;47.17;100120.00;4828874;29;20053;-87
2023/09/12 11:14:37;;;;;;;19.98;9.52;;;;;;;20.07;47.35;100118.72;4857719;29;20049;-88
2023/09/12 11:17:24;;;;;;;23.42;8.98;;;;;;;19.70;48.82;100096.75;4856597;29;20074;-87
2023/09/12 11:20:09;;;;;;;22.50;8.70;;;;;;;19.94;48.24;100137.44;4873141;29;20052;-88
2023/09/12 11:23:19;;;;;;;27.90;9.52;;;;;;;19.76;47.91;100141.69;4842702;29;20073;-86
2023/09/12 11:26:20;;;;;;;27.30;9.85;;;;;;;19.66;47.63;100133.88;4854045;29;20060;-88
2023/09/12 11:28:50;;;;;;;15.75;9.05;;;;;;;19.48;48.97;100128.59;4824446;29;20112;-87
2023/09/12 11:31:49;;;;;;;21.60;8.90;;;;;;;19.48;48.81;100136.94;4846484;29;20084;-90
2023/09/12 11:34:15;;;;;;;24.83;9.45;;;;;;;19.23;49.89;100102.13;4805107;29;20521;-89
2023/09/12 11:36:54;;;;;;;52.28;10.32;;;;;;;19.65;49.17;100138.63;4836003;29;20050;-87
2023/09/12 11:39:29;;;;;;;26.20;9.68;;;;;;;19.80;48.28;100133.44;4833921;29;20062;-88
2023/09/12 11:41:58;;;;;;;16.33;8.20;;;;;;;19.79;46.38;100134.63;4820356;29;20058;-89
2023/09/12 11:44:32;;;;;;;19.35;8.75;;;;;;;19.78;46.77;100106.06;4794035;29;20050;-89
2023/09/12 11:47:03;;;;;;;21.50;8.45;;;;;;;20.00;45.97;100110.22;4805251;29;20537;-88
2023/09/12 11:49:40;;;;;;;19.67;9.95;;;;;;;19.88;46.08;100102.78;4852101;29;20082;-88
2023/09/12 11:52:21;;;;;;;15.40;8.23;;;;;;;20.26;46.28;100126.31;4843618;29;20113;-90
2023/09/12 11:54:47;;;;;;;18.15;8.75;;;;;;;20.28;45.64;100126.78;4842290;29;20197;-88
2023/09/12 11:57:29;;;;;;;15.05;8.60;;;;;;;20.08;46.75;100062.03;4859979;29;20635;-89
2023/09/12 11:59:57;;;;;;;13.43;8.15;;;;;;;20.56;46.06;100126.72;4838448;29;20152;-88
2023/09/12 12:05:19;;;;;;;21.05;8.57;;;;;;;20.13;44.84;100113.69;4857730;29;20050;-89
2023/09/12 12:08:11;;;;;;;22.23;8.43;;;;;;;20.00;46.53;100112.16;4871219;29;20058;-87
2023/09/12 12:10:41;;;;;;;72.13;9.73;;;;;;;19.92;46.44;100109.22;4886225;29;20066;-89
2023/09/12 12:13:34;;;;;;;39.35;8.23;;;;;;;20.14;46.41;100118.91;4891189;29;20060;-88
2023/09/12 12:16:32;;;;;;;19.35;7.53;;;;;;;20.32;46.77;100116.56;4885302;29;20048;-88
2023/09/12 12:19:52;;;;;;;14.38;7.28;;;;;;;20.35;42.48;100112.28;4897218;29;20052;-89
2023/09/12 12:22:40;;;;;;;24.27;7.60;;;;;;;20.49;42.68;100120.13;4888476;29;20051;-90
2023/09/12 12:25:36;;;;;;;12.43;7.13;;;;;;;20.52;43.25;100091.69;4926185;29;20458;-88
2023/09/12 12:28:13;;;;;;;12.55;6.82;;;;;;;20.59;43.55;100102.94;4914125;29;20047;-87
2023/09/12 12:30:42;;;;;;;60.47;8.63;;;;;;;20.80;43.54;100119.31;4898872;29;20048;-88
2023/09/12 12:33:16;;;;;;;22.27;7.35;;;;;;;20.84;43.63;100112.66;4920091;29;20544;-86
2023/09/12 12:35:45;;;;;;;30.40;7.83;;;;;;;20.90;43.64;100113.19;4941636;29;20040;-90
2023/09/12 12:38:39;;;;;;;14.70;7.15;;;;;;;20.92;44.45;100113.63;4932302;29;20076;-92
2023/09/12 12:41:09;;;;;;;33.53;8.70;;;;;;;20.56;45.20;100081.44;4897224;29;20075;-90
2023/09/12 12:43:41;;;;;;;18.30;8.27;;;;;;;20.56;46.00;100093.38;4928102;29;20103;-90
2023/09/12 12:46:22;;;;;;;77.38;9.20;;;;;;;20.44;46.35;100101.78;4891665;29;20047;-91
2023/09/12 12:48:55;;;;;;;18.25;8.55;;;;;;;20.69;45.85;100112.69;4924783;29;20044;-89
2023/09/12 12:51:29;;;;;;;12.38;7.32;;;;;;;20.45;45.47;100119.25;4894314;29;20044;-91
2023/09/12 12:54:29;;;;;;;13.60;8.52;;;;;;;20.35;45.77;100110.28;4886646;29;20133;-89
2023/09/12 12:57:02;;;;;;;19.88;8.05;;;;;;;20.23;46.53;100104.03;4901353;29;20047;-92
2023/09/12 13:00:23;;;;;;;13.82;7.97;;;;;;;20.23;45.92;100113.19;4928852;23;20068;-92
2023/09/12 15:34:13;;;;;;;43.45;13.15;;;;;;;18.35;52.17;100125.91;4905229;23;20056;-86
2023/09/12 15:37:18;;;;;;;50.72;17.48;;;;;;;18.29;52.73;100128.91;4922961;29;20084;-90
2023/09/12 15:43:11;;;;;;;112.82;44.70;;;;;;;17.87;52.05;100094.25;4923365;29;20035;-92
2023/09/12 15:45:37;;;;;;;;;;;;;;;18.04;52.56;100139.09;4888180;29;20569;-92
2023/09/12 15:58:51;;;;;;;51.03;17.65;;;;;;;17.34;53.84;100105.00;4921708;29;20071;-90
2023/09/12 16:01:43;;;;;;;51.97;18.52;;;;;;;17.52;53.25;100150.69;4878732;29;20056;-91
2023/09/12 16:04:12;;;;;;;38.97;17.85;;;;;;;17.46;54.84;100145.72;4900119;29;20040;-90
2023/09/12 16:06:40;;;;;;;22.87;10.97;;;;;;;17.36;52.52;100153.28;4877518;29;20048;-92
2023/09/12 16:09:16;;;;;;;35.60;13.63;;;;;;;16.97;54.68;100090.19;4880970;29;20316;-91
2023/09/12 16:11:42;;;;;;;38.80;14.43;;;;;;;17.25;54.05;100163.13;4873579;29;20143;-91
2023/09/12 16:14:21;;;;;;;52.35;13.80;;;;;;;17.07;55.47;100151.38;4864305;29;20052;-91
2023/09/12 16:17:44;;;;;;;46.85;14.88;;;;;;;17.03;56.25;100163.44;4884205;29;20060;-89
2023/09/12 16:20:36;;;;;;;39.60;14.30;;;;;;;16.86;55.90;100153.31;4870835;29;20037;-92
2023/09/12 16:23:46;;;;;;;49.72;14.93;;;;;;;16.84;56.69;100159.16;4910875;29;20129;-90
2023/09/12 16:27:33;;;;;;;41.15;14.57;;;;;;;16.28;57.34;100091.41;4916597;29;20055;-91
2023/09/12 16:30:15;;;;;;;65.53;15.20;;;;;;;16.20;58.93;100095.84;4884721;29;20292;-90
2023/09/12 16:32:45;;;;;;;43.45;12.50;;;;;;;16.16;58.62;100115.00;4869241;29;20057;-92
2023/09/12 16:35:47;;;;;;;64.80;15.10;;;;;;;16.11;58.41;100115.19;4888126;29;20060;-91
2023/09/12 16:38:14;;;;;;;47.88;12.70;;;;;;;15.98;57.76;100096.88;4893547;29;20255;-93
2023/09/12 16:40:48;;;;;;;27.00;12.68;;;;;;;16.36;58.83;100167.84;4926934;23;20064;-91
2023/09/12 16:44:08;;;;;;;48.97;16.13;;;;;;;16.33;57.66;100160.22;4892133;29;20047;-90
2023/09/12 16:48:05;;;;;;;58.60;16.98;;;;;;;16.23;59.12;100163.34;4922325;29;20055;-90
2023/09/12 16:51:04;;;;;;;45.17;16.42;;;;;;;16.02;59.24;100139.22;4929018;29;20043;-92
2023/09/12 16:53:34;;;;;;;77.13;21.30;;;;;;;15.89;59.70;100120.91;4850315;29;20084;-91
2023/09/12 16:59:27;;;;;;;81.15;34.53;;;;;;;15.91;57.67;100133.25;4842519;29;20098;-93